Time;durP1;ratioP1;P1;durP2;ratioP2;P2;SDS_P1;SDS_P2;PMS_P1;PMS_P2;Temp;Humidity;BMP_temperature;BMP_pressure;BME280_temperature;BME280_humidity;BME280_pressure;Samples;Min_cycle;Max_cycle;Signal;HPM_P1;HPM_P2
2024/01/29 00:00:09;;;;;;;6.40;4.07;;;5.10;99.90;;;;;;5065484;28;20364;-63
2024/01/29 00:02:37;;;;;;;7.03;4.20;;;5.00;99.90;;;;;;5070585;28;20349;-61
2024/01/29 00:05:04;;;;;;;5.95;4.22;;;5.00;99.90;;;;;;5069566;28;20054;-62
2024/01/29 00:07:31;;;;;;;6.28;4.50;;;5.00;99.90;;;;;;5070701;28;20059;-62
2024/01/29 00:09:57;;;;;;;6.07;4.40;;;5.00;99.90;;;;;;5069490;28;20351;-62
2024/01/29 00:12:24;;;;;;;4.82;3.72;;;5.00;99.90;;;;;;5069963;28;20373;-61
2024/01/29 00:14:51;;;;;;;5.93;3.53;;;5.00;99.90;;;;;;5069585;28;20079;-64
2024/01/29 00:17:18;;;;;;;6.05;4.30;;;5.00;99.90;;;;;;5070828;28;20051;-61
2024/01/29 00:19:44;;;;;;;6.07;3.85;;;5.00;99.90;;;;;;5060166;28;20045;-62
2024/01/29 00:22:10;;;;;;;5.75;4.00;;;4.90;99.90;;;;;;5049485;28;20465;-61
2024/01/29 00:24:37;;;;;;;5.95;4.30;;;4.90;99.90;;;;;;5050712;28;20064;-62
2024/01/29 00:27:03;;;;;;;5.78;4.03;;;4.90;99.90;;;;;;5049323;28;20520;-62
2024/01/29 00:29:29;;;;;;;6.75;4.30;;;4.90;99.90;;;;;;5051398;28;20385;-61
2024/01/29 00:31:56;;;;;;;6.65;4.75;;;4.90;99.90;;;;;;5049941;28;20484;-62
2024/01/29 00:34:22;;;;;;;5.30;4.05;;;4.80;99.90;;;;;;5050704;28;20049;-64
2024/01/29 00:36:49;;;;;;;6.60;4.10;;;4.90;99.90;;;;;;5050603;28;20114;-63
2024/01/29 00:39:16;;;;;;;7.57;4.10;;;4.90;99.90;;;;;;5055162;28;20484;-63
2024/01/29 00:41:43;;;;;;;7.18;4.43;;;4.90;99.90;;;;;;5070159;28;20483;-61
2024/01/29 00:44:10;;;;;;;5.38;3.80;;;4.80;99.90;;;;;;5070097;28;20503;-62
2024/01/29 00:46:39;;;;;;;5.28;3.80;;;4.80;99.90;;;;;;5070389;28;20052;-61
2024/01/29 00:49:06;;;;;;;5.97;3.80;;;4.80;99.90;;;;;;5069454;28;20114;-61
2024/01/29 00:51:33;;;;;;;7.38;4.55;;;4.70;99.90;;;;;;5068588;28;20058;-62
2024/01/29 00:53:59;;;;;;;6.05;4.10;;;4.80;99.90;;;;;;5070311;28;20063;-61
2024/01/29 00:56:25;;;;;;;6.10;3.90;;;4.70;99.90;;;;;;5070127;28;20380;-61
2024/01/29 00:58:52;;;;;;;5.90;4.50;;;4.70;99.90;;;;;;5069618;28;20045;-62
2024/01/29 01:01:19;;;;;;;5.25;4.05;;;4.70;99.90;;;;;;5069008;28;20264;-61
2024/01/29 01:03:46;;;;;;;6.07;4.28;;;4.70;99.90;;;;;;5070019;28;20051;-61
2024/01/29 01:06:12;;;;;;;6.07;4.20;;;4.70;99.90;;;;;;5067114;28;20059;-61
2024/01/29 01:08:38;;;;;;;5.80;3.90;;;4.70;99.90;;;;;;5068968;28;20044;-61
2024/01/29 01:11:06;;;;;;;6.32;4.45;;;4.70;99.90;;;;;;5068514;28;20052;-61
2024/01/29 01:13:33;;;;;;;6.22;4.43;;;4.70;99.90;;;;;;5070129;28;20056;-62
2024/01/29 01:15:59;;;;;;;7.40;4.30;;;4.70;99.90;;;;;;5052367;28;20059;-61
2024/01/29 01:18:26;;;;;;;5.65;4.20;;;4.70;99.90;;;;;;5052143;28;20330;-61
2024/01/29 01:20:52;;;;;;;7.20;4.45;;;4.70;99.90;;;;;;5069017;28;20404;-61
2024/01/29 01:23:20;;;;;;;5.15;4.05;;;4.70;99.90;;;;;;5068842;28;20053;-63
2024/01/29 01:25:46;;;;;;;6.20;4.40;;;4.70;99.90;;;;;;5070109;28;20063;-61
2024/01/29 01:28:12;;;;;;;6.82;4.28;;;4.70;99.90;;;;;;5070078;28;20044;-61
2024/01/29 01:30:38;;;;;;;6.40;4.13;;;4.70;99.90;;;;;;5051101;28;20352;-62
2024/01/29 01:33:05;;;;;;;5.57;4.60;;;4.70;99.90;;;;;;5051868;28;20477;-62
2024/01/29 01:35:31;;;;;;;4.90;3.88;;;4.70;99.90;;;;;;5052569;28;20063;-61
2024/01/29 01:37:57;;;;;;;5.75;3.95;;;4.70;99.90;;;;;;5053447;28;20106;-61
2024/01/29 01:40:24;;;;;;;5.00;4.03;;;4.60;99.90;;;;;;5053670;28;20056;-62
2024/01/29 01:42:51;;;;;;;6.00;4.50;;;4.60;99.90;;;;;;5052465;28;20053;-61
2024/01/29 01:45:17;;;;;;;6.78;4.30;;;4.60;99.90;;;;;;5052011;28;20052;-62
2024/01/29 01:47:44;;;;;;;5.85;4.60;;;4.50;99.90;;;;;;5053567;28;20048;-62
2024/01/29 01:50:11;;;;;;;7.55;4.63;;;4.50;99.90;;;;;;5052661;28;20469;-61
2024/01/29 01:52:38;;;;;;;7.35;4.43;;;4.50;99.90;;;;;;5052743;28;20049;-61
2024/01/29 01:55:06;;;;;;;6.55;4.57;;;4.50;99.90;;;;;;5052223;28;20045;-61
2024/01/29 01:57:36;;;;;;;7.25;4.07;;;4.50;99.90;;;;;;5053244;28;20613;-62
2024/01/29 02:00:03;;;;;;;6.70;4.40;;;4.40;99.90;;;;;;5053879;28;20045;-62
2024/01/29 02:02:29;;;;;;;5.70;4.40;;;4.40;99.90;;;;;;5052958;28;20075;-62
2024/01/29 02:04:55;;;;;;;7.53;4.88;;;4.40;99.90;;;;;;5053363;28;20052;-62
2024/01/29 02:07:22;;;;;;;5.25;4.35;;;4.40;99.90;;;;;;5053218;28;20045;-61
2024/01/29 02:09:48;;;;;;;7.80;4.88;;;4.40;99.90;;;;;;5051742;28;20049;-61
2024/01/29 02:12:15;;;;;;;6.43;4.97;;;4.40;99.90;;;;;;5052640;28;20041;-62
2024/01/29 02:14:41;;;;;;;7.07;5.10;;;4.40;99.90;;;;;;5052804;28;20132;-61
2024/01/29 02:17:08;;;;;;;6.70;4.95;;;4.30;99.90;;;;;;5051682;28;20440;-62
2024/01/29 02:19:35;;;;;;;6.53;4.28;;;4.30;99.90;;;;;;5060738;28;20059;-62
2024/01/29 02:22:01;;;;;;;5.97;4.30;;;4.30;99.90;;;;;;5072467;28;20044;-62
2024/01/29 02:24:28;;;;;;;6.93;4.82;;;4.30;99.90;;;;;;5072741;28;20460;-62
2024/01/29 02:26:54;;;;;;;7.82;5.07;;;4.30;99.90;;;;;;5072820;28;20048;-62
2024/01/29 02:29:21;;;;;;;6.32;4.50;;;4.20;99.90;;;;;;5066084;28;20106;-62
2024/01/29 02:31:47;;;;;;;7.15;4.68;;;4.20;99.90;;;;;;5052389;28;20051;-62
2024/01/29 02:34:13;;;;;;;6.28;4.40;;;4.10;99.90;;;;;;5052961;28;20114;-61
2024/01/29 02:36:39;;;;;;;6.32;4.32;;;4.20;99.90;;;;;;5051161;28;20053;-65
2024/01/29 02:39:08;;;;;;;8.30;4.72;;;4.20;99.90;;;;;;5052911;28;20048;-62
2024/01/29 02:41:34;;;;;;;5.25;3.95;;;4.20;99.90;;;;;;5056735;28;20105;-61
2024/01/29 02:44:00;;;;;;;7.32;5.28;;;4.10;99.90;;;;;;5071798;28;20510;-62
2024/01/29 02:46:26;;;;;;;5.97;4.63;;;4.10;99.90;;;;;;5072281;28;20491;-61
2024/01/29 02:48:53;;;;;;;6.22;4.85;;;4.10;99.90;;;;;;5071367;28;20066;-62
2024/01/29 02:51:20;;;;;;;7.47;4.60;;;4.20;99.90;;;;;;5070575;28;20049;-62
2024/01/29 02:53:46;;;;;;;5.97;4.47;;;4.10;99.90;;;;;;5073308;28;20109;-61
2024/01/29 02:56:12;;;;;;;8.95;4.85;;;4.10;99.90;;;;;;5073888;28;20500;-61
2024/01/29 02:58:38;;;;;;;7.63;4.50;;;4.10;99.90;;;;;;5073608;28;20385;-61
2024/01/29 03:01:05;;;;;;;6.03;4.63;;;4.00;99.90;;;;;;5074056;28;20048;-61
2024/01/29 03:03:31;;;;;;;8.50;5.20;;;4.00;99.90;;;;;;5074129;28;20266;-62
2024/01/29 03:05:57;;;;;;;7.05;4.40;;;4.00;99.90;;;;;;5072931;28;20071;-61
2024/01/29 03:08:23;;;;;;;7.85;4.85;;;4.10;99.90;;;;;;5071085;28;20118;-62
2024/01/29 03:10:50;;;;;;;5.75;4.40;;;4.00;99.90;;;;;;5054488;28;20048;-62
2024/01/29 03:13:16;;;;;;;6.10;4.55;;;4.00;99.90;;;;;;5051845;28;20373;-62
2024/01/29 03:15:44;;;;;;;5.47;4.50;;;4.00;99.90;;;;;;5051664;28;20055;-61
2024/01/29 03:18:12;;;;;;;6.32;4.57;;;4.00;99.90;;;;;;5051733;28;20347;-61
2024/01/29 03:20:38;;;;;;;6.20;4.60;;;4.00;99.90;;;;;;5055185;28;20457;-62
2024/01/29 03:23:04;;;;;;;6.88;4.95;;;4.00;99.90;;;;;;5070976;28;20052;-61
2024/01/29 03:25:32;;;;;;;7.28;5.00;;;3.90;99.90;;;;;;5069997;28;20461;-61
2024/01/29 03:27:58;;;;;;;8.02;5.43;;;4.00;99.90;;;;;;5070948;28;20048;-61
2024/01/29 03:30:24;;;;;;;6.03;4.80;;;3.90;99.90;;;;;;5070756;28;20055;-64
2024/01/29 03:32:54;;;;;;;6.22;4.85;;;4.00;99.90;;;;;;5070709;28;20056;-62
2024/01/29 03:35:20;;;;;;;6.90;4.65;;;4.00;99.90;;;;;;5070751;28;20539;-62
2024/01/29 03:37:47;;;;;;;6.95;5.13;;;4.00;99.90;;;;;;5068545;28;20056;-61
2024/01/29 03:40:13;;;;;;;7.97;5.10;;;3.90;99.90;;;;;;5070496;28;20040;-62
2024/01/29 03:42:40;;;;;;;9.18;4.80;;;4.00;99.90;;;;;;5071110;28;20052;-63
2024/01/29 03:45:07;;;;;;;6.63;4.57;;;3.90;99.90;;;;;;5068123;28;20052;-61
2024/01/29 03:47:33;;;;;;;5.85;4.88;;;4.00;99.90;;;;;;5070191;28;20448;-61
2024/01/29 03:49:59;;;;;;;7.75;4.97;;;4.00;99.90;;;;;;5070475;28;20075;-61
2024/01/29 03:52:25;;;;;;;6.38;4.95;;;3.90;99.90;;;;;;5069340;28;20041;-61
2024/01/29 03:54:53;;;;;;;6.30;4.78;;;4.00;99.90;;;;;;5070775;28;20062;-61
2024/01/29 03:57:19;;;;;;;8.23;5.32;;;4.00;99.90;;;;;;5070268;28;20403;-62
2024/01/29 03:59:45;;;;;;;7.45;4.75;;;4.00;99.90;;;;;;5070340;28;20051;-63
2024/01/29 04:02:12;;;;;;;6.00;4.53;;;3.90;99.90;;;;;;5069424;28;20461;-62
2024/01/29 04:04:38;;;;;;;7.30;4.88;;;3.90;99.90;;;;;;5070784;28;20052;-61
2024/01/29 04:07:04;;;;;;;7.13;5.00;;;4.00;99.90;;;;;;5069586;28;20511;-63
2024/01/29 04:09:31;;;;;;;6.80;4.90;;;4.00;99.90;;;;;;5063735;28;20056;-62
2024/01/29 04:11:59;;;;;;;6.90;4.82;;;4.00;99.90;;;;;;5050754;28;20099;-61
2024/01/29 04:14:28;;;;;;;6.32;5.07;;;4.00;99.90;;;;;;5050435;28;20056;-60
2024/01/29 04:16:54;;;;;;;6.45;4.88;;;4.00;99.90;;;;;;5049047;28;20049;-63
2024/01/29 04:19:21;;;;;;;7.18;5.00;;;4.10;99.90;;;;;;5050154;28;20057;-61
2024/01/29 04:21:47;;;;;;;8.68;5.43;;;4.00;99.90;;;;;;5049803;28;20049;-61
2024/01/29 04:24:15;;;;;;;6.57;5.03;;;4.00;99.90;;;;;;5049772;28;20057;-62
2024/01/29 04:26:42;;;;;;;6.68;4.88;;;4.00;99.90;;;;;;5054160;28;20499;-61
2024/01/29 04:29:08;;;;;;;7.30;5.10;;;4.00;99.90;;;;;;5069783;28;20040;-64
2024/01/29 04:31:35;;;;;;;7.45;5.07;;;4.00;99.90;;;;;;5070454;28;20052;-61
2024/01/29 04:34:02;;;;;;;7.18;4.82;;;4.00;99.90;;;;;;5068692;28;20044;-60
2024/01/29 04:36:28;;;;;;;6.50;4.60;;;4.00;99.90;;;;;;5069842;28;20422;-62
2024/01/29 04:38:55;;;;;;;7.05;4.95;;;3.90;99.90;;;;;;5069968;28;20138;-62
2024/01/29 04:41:22;;;;;;;7.07;5.13;;;4.00;99.90;;;;;;5068930;28;20252;-62
2024/01/29 04:43:49;;;;;;;7.20;4.95;;;3.90;99.90;;;;;;5069639;28;20144;-61
2024/01/29 04:46:16;;;;;;;6.72;4.97;;;4.00;99.90;;;;;;5070500;28;20060;-62
2024/01/29 04:48:42;;;;;;;8.68;5.50;;;4.00;99.90;;;;;;5070572;28;20056;-63
2024/01/29 04:51:09;;;;;;;8.10;5.43;;;3.90;99.90;;;;;;5069331;28;20071;-61
2024/01/29 04:53:38;;;;;;;9.60;5.72;;;4.00;99.90;;;;;;5070496;28;20048;-61
2024/01/29 04:56:04;;;;;;;6.60;5.18;;;4.00;99.90;;;;;;5069468;28;20499;-61
2024/01/29 04:58:33;;;;;;;8.63;5.20;;;4.00;99.90;;;;;;5070599;28;20053;-62
2024/01/29 05:01:00;;;;;;;7.47;5.45;;;4.00;99.90;;;;;;5051517;28;20136;-60
2024/01/29 05:03:27;;;;;;;6.72;5.22;;;4.00;99.90;;;;;;5049285;28;20060;-62
2024/01/29 05:05:54;;;;;;;7.18;5.40;;;4.00;99.90;;;;;;5049240;28;20064;-62
2024/01/29 05:08:22;;;;;;;7.05;5.15;;;4.00;99.90;;;;;;5052790;28;20430;-62
2024/01/29 05:10:49;;;;;;;6.68;5.20;;;4.00;99.90;;;;;;5070270;28;20049;-61
2024/01/29 05:13:16;;;;;;;7.22;5.28;;;4.00;99.90;;;;;;5074257;28;20045;-61
2024/01/29 05:15:42;;;;;;;6.28;5.28;;;3.90;99.90;;;;;;5074831;28;20410;-62
2024/01/29 05:18:08;;;;;;;7.63;5.32;;;4.00;99.90;;;;;;5074253;28;20049;-62
2024/01/29 05:20:35;;;;;;;8.80;5.20;;;4.00;99.90;;;;;;5074080;28;20071;-61
2024/01/29 05:23:02;;;;;;;7.63;4.93;;;4.00;99.90;;;;;;5074642;28;20365;-62
2024/01/29 05:25:28;;;;;;;7.43;4.85;;;4.00;99.90;;;;;;5074650;28;20052;-61
2024/01/29 05:27:54;;;;;;;6.22;4.88;;;3.90;99.90;;;;;;5074193;28;20133;-62
2024/01/29 05:30:20;;;;;;;7.53;5.68;;;3.90;99.90;;;;;;5060479;28;20114;-61
2024/01/29 05:32:46;;;;;;;6.20;5.18;;;3.90;99.90;;;;;;5053648;28;20167;-62
2024/01/29 05:35:13;;;;;;;7.10;5.20;;;4.00;99.90;;;;;;5054059;28;20044;-62
2024/01/29 05:37:39;;;;;;;7.22;5.35;;;4.00;99.90;;;;;;5054059;28;20049;-61
2024/01/29 05:40:09;;;;;;;5.80;5.00;;;4.00;99.90;;;;;;5064432;28;20040;-62
2024/01/29 05:42:38;;;;;;;6.80;5.50;;;3.90;99.90;;;;;;5073899;28;20443;-65
2024/01/29 05:45:05;;;;;;;7.15;6.18;;;4.00;99.90;;;;;;5073613;28;20048;-61
2024/01/29 05:47:32;;;;;;;6.03;5.30;;;4.00;99.90;;;;;;5073576;28;20067;-63
2024/01/29 05:49:59;;;;;;;8.63;5.63;;;4.00;99.90;;;;;;5062630;28;20041;-61
2024/01/29 05:52:25;;;;;;;6.35;5.30;;;4.00;99.90;;;;;;5053138;28;20477;-62
2024/01/29 05:54:51;;;;;;;7.22;5.63;;;4.00;99.90;;;;;;5053682;28;20350;-62
2024/01/29 05:57:18;;;;;;;8.38;5.43;;;3.90;99.90;;;;;;5053372;28;20041;-61
2024/01/29 05:59:44;;;;;;;8.40;6.32;;;3.90;99.90;;;;;;5053556;28;20045;-62
2024/01/29 06:02:11;;;;;;;6.88;5.25;;;3.90;99.90;;;;;;5070006;28;20063;-62
2024/01/29 06:04:37;;;;;;;7.03;5.80;;;3.80;99.90;;;;;;5072976;28;20044;-62
2024/01/29 06:07:05;;;;;;;10.10;5.85;;;3.70;99.90;;;;;;5071986;28;20064;-61
2024/01/29 06:09:32;;;;;;;10.10;6.03;;;3.70;99.90;;;;;;5069403;28;20063;-62
2024/01/29 06:11:58;;;;;;;7.80;5.90;;;3.70;99.90;;;;;;5072533;28;20678;-62
2024/01/29 06:14:26;;;;;;;8.07;5.88;;;3.70;99.90;;;;;;5072511;28;20066;-60
2024/01/29 06:16:56;;;;;;;7.32;5.53;;;3.70;99.90;;;;;;5072641;28;20377;-62
2024/01/29 06:19:22;;;;;;;7.07;5.75;;;3.70;99.90;;;;;;5070536;28;20044;-62
2024/01/29 06:21:49;;;;;;;8.70;5.70;;;3.80;99.90;;;;;;5072477;28;20114;-62
2024/01/29 06:24:15;;;;;;;6.53;5.10;;;3.70;99.90;;;;;;5072780;28;20535;-62
2024/01/29 06:26:42;;;;;;;7.15;5.10;;;3.80;99.90;;;;;;5072296;28;20057;-62
2024/01/29 06:29:08;;;;;;;7.90;5.68;;;3.80;99.90;;;;;;5072081;28;20043;-62
2024/01/29 06:31:41;;;;;;;7.95;5.65;;;3.80;99.90;;;;;;5071386;28;20048;-62
2024/01/29 06:34:07;;;;;;;8.02;5.28;;;3.80;99.90;;;;;;5069589;28;20045;-64
2024/01/29 06:36:34;;;;;;;7.40;5.70;;;3.90;99.90;;;;;;5072063;28;20056;-61
2024/01/29 06:39:00;;;;;;;7.30;5.72;;;3.80;99.90;;;;;;5071524;28;20376;-61
2024/01/29 06:41:27;;;;;;;7.75;4.90;;;3.80;99.90;;;;;;5071970;28;20102;-63
2024/01/29 06:43:54;;;;;;;7.20;5.30;;;3.90;99.90;;;;;;5072039;28;20059;-62
2024/01/29 06:46:21;;;;;;;10.10;5.50;;;3.80;99.90;;;;;;5071887;28;20450;-63
2024/01/29 06:48:48;;;;;;;7.60;5.97;;;3.90;99.90;;;;;;5070494;28;20059;-62
2024/01/29 06:51:15;;;;;;;9.48;6.10;;;3.90;99.90;;;;;;5071762;28;20445;-62
2024/01/29 06:53:42;;;;;;;8.38;5.88;;;3.90;99.90;;;;;;5072990;28;20149;-61
2024/01/29 06:56:08;;;;;;;9.07;7.15;;;3.90;99.90;;;;;;5072579;28;20049;-62
2024/01/29 06:58:38;;;;;;;7.70;5.85;;;4.00;99.90;;;;;;5071788;28;20165;-62
2024/01/29 07:01:05;;;;;;;7.13;5.00;;;3.80;99.90;;;;;;5053035;28;20438;-61
2024/01/29 07:03:32;;;;;;;8.98;5.57;;;3.90;99.90;;;;;;5052950;28;20450;-61
2024/01/29 07:05:58;;;;;;;8.63;6.22;;;3.80;99.90;;;;;;5052912;28;20052;-61
2024/01/29 07:08:29;;;;;;;8.45;6.20;;;4.00;99.90;;;;;;5051293;28;20061;-61
2024/01/29 07:10:56;;;;;;;9.43;6.25;;;3.90;99.90;;;;;;5068548;28;20051;-61
2024/01/29 07:13:22;;;;;;;6.57;5.63;;;3.90;99.90;;;;;;5071030;28;20060;-62
2024/01/29 07:15:48;;;;;;;7.20;5.80;;;3.80;99.90;;;;;;5070162;28;20445;-61
2024/01/29 07:18:15;;;;;;;7.45;5.80;;;3.90;99.90;;;;;;5070413;28;20051;-62
2024/01/29 07:20:43;;;;;;;9.20;6.03;;;3.70;99.90;;;;;;5070012;28;20059;-62
2024/01/29 07:23:10;;;;;;;8.23;6.50;;;3.80;99.90;;;;;;5071447;28;20353;-62
2024/01/29 07:25:38;;;;;;;9.05;5.93;;;3.80;99.90;;;;;;5071292;28;20051;-61
2024/01/29 07:28:05;;;;;;;6.32;5.60;;;3.80;99.90;;;;;;5070254;28;20052;-62
2024/01/29 07:30:32;;;;;;;8.60;6.43;;;3.70;99.90;;;;;;5071112;28;20048;-62
2024/01/29 07:32:59;;;;;;;9.70;6.00;;;3.70;99.90;;;;;;5071253;28;20045;-62
2024/01/29 07:35:28;;;;;;;9.80;6.20;;;3.80;99.90;;;;;;5071366;28;20036;-61
2024/01/29 07:37:55;;;;;;;8.73;5.93;;;3.80;99.90;;;;;;5070975;28;20044;-61
2024/01/29 07:40:21;;;;;;;8.43;5.82;;;3.80;99.90;;;;;;5069239;28;20056;-65
2024/01/29 07:42:49;;;;;;;8.73;6.32;;;3.90;99.90;;;;;;5070014;28;20119;-63
2024/01/29 07:45:16;;;;;;;8.38;6.35;;;3.90;99.90;;;;;;5072253;28;20044;-62
2024/01/29 07:47:42;;;;;;;8.77;6.15;;;3.80;99.90;;;;;;5068028;28;20395;-62
2024/01/29 07:50:09;;;;;;;9.10;5.75;;;3.80;99.90;;;;;;5058846;28;20048;-63
2024/01/29 07:52:36;;;;;;;7.63;5.75;;;3.90;99.90;;;;;;5055267;28;20086;-63
2024/01/29 07:55:02;;;;;;;8.50;6.40;;;4.10;99.90;;;;;;5072578;28;20055;-63
2024/01/29 07:57:29;;;;;;;9.43;6.35;;;4.10;99.90;;;;;;5064197;28;20056;-63
2024/01/29 07:59:55;;;;;;;8.15;6.63;;;4.10;99.90;;;;;;5051601;28;20041;-62
2024/01/29 08:02:21;;;;;;;9.73;6.00;;;4.20;99.90;;;;;;5063924;28;20056;-62
2024/01/29 08:04:47;;;;;;;9.38;5.93;;;4.20;99.90;;;;;;5072411;28;20057;-62
2024/01/29 08:07:14;;;;;;;8.45;6.38;;;4.30;99.90;;;;;;5052807;28;20067;-63
2024/01/29 08:09:40;;;;;;;9.43;5.90;;;4.30;99.90;;;;;;5052603;28;20055;-63
2024/01/29 08:12:06;;;;;;;9.55;6.22;;;4.30;99.90;;;;;;5052812;28;20060;-63
2024/01/29 08:14:33;;;;;;;8.50;5.82;;;4.40;99.90;;;;;;5052715;28;20041;-63
2024/01/29 08:16:59;;;;;;;8.20;6.10;;;4.30;99.90;;;;;;5052439;28;20128;-63
2024/01/29 08:19:26;;;;;;;9.90;6.85;;;4.30;99.90;;;;;;5071239;28;20465;-63
2024/01/29 08:21:52;;;;;;;6.80;5.72;;;4.30;99.90;;;;;;5072586;28;20048;-63
2024/01/29 08:24:18;;;;;;;6.75;5.85;;;4.50;99.90;;;;;;5073279;28;20067;-63
2024/01/29 08:26:44;;;;;;;8.88;6.32;;;4.60;99.90;;;;;;5073149;28;20113;-63
2024/01/29 08:29:11;;;;;;;8.63;6.20;;;4.50;99.90;;;;;;5071537;28;20689;-63
2024/01/29 08:31:38;;;;;;;8.55;6.35;;;4.70;99.90;;;;;;5072482;28;20453;-63
2024/01/29 08:34:04;;;;;;;8.35;6.15;;;4.60;99.90;;;;;;5071305;28;20052;-62
2024/01/29 08:36:30;;;;;;;10.85;6.30;;;4.70;99.90;;;;;;5072629;28;20106;-62
2024/01/29 08:38:57;;;;;;;7.05;5.97;;;4.80;99.90;;;;;;5072832;28;20555;-62
2024/01/29 08:41:23;;;;;;;8.60;6.40;;;4.70;99.90;;;;;;5072158;28;20468;-62
2024/01/29 08:43:49;;;;;;;7.75;6.00;;;4.90;99.90;;;;;;5072696;28;20084;-62
2024/01/29 08:46:15;;;;;;;8.02;6.13;;;4.90;99.90;;;;;;5073010;28;20131;-63
2024/01/29 08:48:42;;;;;;;9.75;6.10;;;5.00;99.90;;;;;;5072818;28;20074;-63
2024/01/29 08:51:08;;;;;;;9.50;6.57;;;5.00;99.90;;;;;;5072782;28;20076;-63
2024/01/29 08:53:36;;;;;;;8.20;6.53;;;5.10;99.90;;;;;;5072823;28;20048;-63
2024/01/29 08:56:08;;;;;;;7.57;5.75;;;5.20;99.90;;;;;;5072110;28;20063;-62
2024/01/29 08:58:35;;;;;;;9.55;7.38;;;5.10;99.90;;;;;;5073181;28;20044;-62
2024/01/29 09:01:02;;;;;;;7.75;6.28;;;5.30;99.90;;;;;;5072659;28;20053;-63
2024/01/29 09:03:29;;;;;;;8.85;7.07;;;5.20;99.90;;;;;;5072657;28;20056;-62
2024/01/29 09:05:55;;;;;;;10.40;7.95;;;5.20;99.90;;;;;;5072221;28;20052;-62
2024/01/29 09:08:22;;;;;;;8.98;6.53;;;5.30;99.90;;;;;;5072674;28;20730;-62
2024/01/29 09:10:48;;;;;;;10.05;7.18;;;5.40;99.90;;;;;;5072724;28;20090;-62
2024/01/29 09:13:14;;;;;;;9.38;6.68;;;5.30;99.90;;;;;;5071804;28;20052;-62
2024/01/29 09:15:41;;;;;;;9.48;7.13;;;5.40;99.90;;;;;;5072249;28;20060;-63
2024/01/29 09:18:07;;;;;;;9.80;7.25;;;5.60;99.90;;;;;;5072466;28;20496;-63
2024/01/29 09:20:33;;;;;;;9.52;7.40;;;5.50;99.90;;;;;;5071976;28;20396;-62
2024/01/29 09:22:59;;;;;;;9.75;7.07;;;5.60;99.90;;;;;;5071488;28;20114;-63
2024/01/29 09:25:26;;;;;;;8.40;6.72;;;5.80;99.90;;;;;;5073059;28;20410;-62
2024/01/29 09:27:52;;;;;;;8.95;7.78;;;5.90;99.90;;;;;;5071798;28;20270;-62
2024/01/29 09:30:18;;;;;;;8.35;6.57;;;5.80;99.90;;;;;;5071716;28;20475;-63
2024/01/29 09:32:44;;;;;;;8.73;7.03;;;6.00;99.90;;;;;;5072541;28;20044;-63
2024/01/29 09:35:11;;;;;;;8.75;6.65;;;6.00;99.90;;;;;;5073386;28;20044;-62
2024/01/29 09:37:39;;;;;;;10.77;7.22;;;6.00;99.90;;;;;;5072883;28;20052;-63
2024/01/29 09:40:08;;;;;;;10.43;7.72;;;6.10;99.90;;;;;;5071716;28;20052;-62
2024/01/29 09:42:36;;;;;;;10.65;7.05;;;6.00;99.90;;;;;;5071573;28;20052;-63
2024/01/29 09:45:05;;;;;;;8.88;6.75;;;6.10;99.90;;;;;;5073061;28;20056;-62
2024/01/29 09:47:31;;;;;;;10.52;6.93;;;6.10;99.90;;;;;;5072665;28;20473;-62
2024/01/29 09:49:58;;;;;;;9.45;7.18;;;6.30;99.90;;;;;;5073237;28;20049;-63
2024/01/29 09:52:25;;;;;;;9.48;7.80;;;6.40;99.90;;;;;;5072637;28;20055;-62
2024/01/29 09:54:52;;;;;;;8.95;7.22;;;6.30;99.90;;;;;;5074966;28;20048;-63
2024/01/29 09:57:18;;;;;;;10.27;7.10;;;6.30;99.90;;;;;;5067492;28;20114;-62
2024/01/29 09:59:45;;;;;;;10.02;7.68;;;6.40;99.90;;;;;;5056409;28;20053;-63
2024/01/29 10:02:12;;;;;;;9.13;7.13;;;6.30;99.90;;;;;;5055209;28;20052;-62
2024/01/29 10:04:38;;;;;;;10.85;7.47;;;6.40;99.90;;;;;;5038662;28;20107;-63
2024/01/29 10:07:05;;;;;;;10.15;6.85;;;6.30;99.90;;;;;;5055997;28;20373;-62
2024/01/29 10:09:31;;;;;;;9.93;6.90;;;6.30;99.90;;;;;;5065902;28;20433;-62
2024/01/29 10:11:57;;;;;;;9.15;7.30;;;6.40;99.90;;;;;;5075759;28;20476;-62
2024/01/29 10:14:25;;;;;;;10.30;7.88;;;6.60;99.90;;;;;;5076243;28;20044;-64
2024/01/29 10:16:52;;;;;;;12.15;7.97;;;6.50;99.90;;;;;;5074904;28;20048;-63
2024/01/29 10:19:18;;;;;;;9.18;7.68;;;6.60;99.90;;;;;;5075930;28;20045;-63
2024/01/29 10:21:45;;;;;;;9.68;7.97;;;6.70;99.90;;;;;;5076012;28;20044;-63
2024/01/29 10:24:13;;;;;;;8.88;7.63;;;7.00;99.90;;;;;;5076164;28;20387;-63
2024/01/29 10:26:44;;;;;;;9.15;7.45;;;7.00;99.90;;;;;;5074948;28;20052;-63
2024/01/29 10:29:11;;;;;;;10.65;7.97;;;7.10;99.90;;;;;;5075777;28;20107;-63
2024/01/29 10:31:38;;;;;;;10.38;7.55;;;7.30;99.90;;;;;;5055043;28;20048;-63
2024/01/29 10:34:05;;;;;;;10.88;8.10;;;7.30;99.90;;;;;;5056069;28;20060;-63
2024/01/29 10:36:33;;;;;;;9.35;8.20;;;7.50;99.90;;;;;;5057774;28;20048;-63
2024/01/29 10:39:00;;;;;;;11.05;7.75;;;7.50;99.90;;;;;;5076024;28;20121;-63
2024/01/29 10:41:31;;;;;;;12.43;9.10;;;7.50;99.90;;;;;;5075900;28;20071;-64
2024/01/29 10:44:02;;;;;;;11.68;8.63;;;7.50;99.90;;;;;;5075147;28;20485;-63
2024/01/29 10:46:31;;;;;;;11.77;9.05;;;7.70;99.90;;;;;;5074801;28;20326;-63
2024/01/29 10:48:58;;;;;;;12.27;8.68;;;7.70;99.90;;;;;;5075505;28;20380;-63
2024/01/29 10:51:33;;;;;;;11.35;8.73;;;7.90;99.90;;;;;;5057010;28;20064;-62
2024/01/29 10:54:00;;;;;;;11.82;8.35;;;8.00;99.90;;;;;;5055727;28;20049;-63
2024/01/29 10:56:27;;;;;;;10.75;8.50;;;7.90;99.90;;;;;;5056084;28;20470;-63
2024/01/29 10:58:58;;;;;;;12.25;8.75;;;8.10;99.90;;;;;;5071398;28;20049;-64
2024/01/29 11:01:33;;;;;;;11.77;7.65;;;8.20;99.90;;;;;;5055404;28;20049;-64
2024/01/29 11:04:03;;;;;;;11.93;9.02;;;8.20;99.90;;;;;;5054668;28;20412;-64
2024/01/29 11:06:38;;;;;;;10.70;8.65;;;8.20;99.90;;;;;;5054211;28;20420;-64
2024/01/29 11:09:09;;;;;;;10.68;8.88;;;8.50;99.90;;;;;;5054379;28;20118;-64
2024/01/29 11:11:36;;;;;;;12.93;9.10;;;8.40;99.90;;;;;;5074242;28;20044;-63
2024/01/29 11:14:03;;;;;;;11.70;9.10;;;8.40;99.90;;;;;;5073469;28;20048;-63
2024/01/29 11:16:29;;;;;;;11.27;9.00;;;8.50;99.90;;;;;;5072711;28;20048;-63
2024/01/29 11:18:56;;;;;;;12.00;9.52;;;8.40;99.90;;;;;;5074086;28;20053;-64
2024/01/29 11:21:24;;;;;;;10.60;8.10;;;8.40;99.90;;;;;;5073833;28;20076;-64
2024/01/29 11:23:54;;;;;;;10.95;9.18;;;8.60;99.90;;;;;;5074373;28;20333;-64
2024/01/29 11:26:23;;;;;;;12.02;8.70;;;8.50;99.90;;;;;;5073917;28;20040;-64
2024/01/29 11:28:57;;;;;;;10.48;8.40;;;8.60;99.90;;;;;;5072920;28;20052;-63
2024/01/29 11:31:37;;;;;;;11.05;8.93;;;8.50;99.90;;;;;;5073992;28;20049;-64
2024/01/29 11:34:07;;;;;;;11.60;8.85;;;8.50;99.90;;;;;;5073913;28;20063;-63
2024/01/29 11:36:38;;;;;;;12.07;9.02;;;8.60;99.90;;;;;;5072583;28;20063;-63
2024/01/29 11:39:07;;;;;;;12.15;8.57;;;8.70;99.90;;;;;;5073660;28;20063;-64
2024/01/29 11:41:36;;;;;;;11.88;8.40;;;8.60;99.90;;;;;;5073704;28;20127;-64
2024/01/29 11:44:02;;;;;;;11.25;9.02;;;8.60;99.90;;;;;;5072144;28;20056;-64
2024/01/29 11:46:29;;;;;;;13.13;9.38;;;8.60;99.90;;;;;;5073408;28;20040;-63
2024/01/29 11:48:58;;;;;;;12.00;9.18;;;8.70;99.90;;;;;;5073673;28;20048;-64
2024/01/29 11:51:27;;;;;;;13.57;8.98;;;8.80;99.90;;;;;;5053726;28;20049;-63
2024/01/29 11:53:53;;;;;;;13.82;9.55;;;8.90;99.90;;;;;;5053719;28;20075;-65
2024/01/29 11:56:20;;;;;;;13.70;9.90;;;8.80;99.90;;;;;;5053921;28;20079;-63
2024/01/29 11:59:00;;;;;;;11.55;8.80;;;8.90;99.90;;;;;;5072582;28;20049;-63
2024/01/29 12:01:28;;;;;;;11.50;8.75;;;9.20;99.90;;;;;;5054524;28;20102;-64
2024/01/29 12:03:54;;;;;;;12.32;9.82;;;9.30;99.90;;;;;;5052531;28;20084;-63
2024/01/29 12:06:20;;;;;;;12.10;9.55;;;9.20;99.90;;;;;;5071932;28;20052;-63
2024/01/29 12:08:47;;;;;;;11.98;8.27;;;9.30;99.90;;;;;;5073039;28;20052;-64
2024/01/29 12:11:15;;;;;;;10.82;8.88;;;9.40;99.90;;;;;;5072521;28;20064;-62
2024/01/29 12:13:42;;;;;;;10.73;8.95;;;9.40;99.90;;;;;;5072155;28;20456;-63
2024/01/29 12:16:10;;;;;;;14.82;9.10;;;9.40;99.90;;;;;;5072801;28;20048;-63
2024/01/29 12:18:38;;;;;;;15.68;9.95;;;9.60;99.90;;;;;;5071478;28;20063;-63
2024/01/29 12:21:05;;;;;;;14.13;9.40;;;9.60;99.90;;;;;;5073117;28;20180;-63
2024/01/29 12:23:32;;;;;;;11.40;8.95;;;9.60;99.90;;;;;;5072493;28;20051;-64
2024/01/29 12:25:59;;;;;;;13.25;9.70;;;9.60;99.90;;;;;;5073646;28;20052;-63
2024/01/29 12:28:26;;;;;;;14.88;10.25;;;9.70;99.90;;;;;;5073067;28;20059;-63
2024/01/29 12:31:06;;;;;;;15.55;9.25;;;9.80;99.90;;;;;;5071747;28;20449;-64
2024/01/29 12:33:35;;;;;;;15.82;10.10;;;9.60;99.90;;;;;;5072206;28;20063;-63
2024/01/29 12:36:12;;;;;;;12.68;9.50;;;9.60;99.90;;;;;;5055869;28;20048;-63
2024/01/29 12:38:40;;;;;;;12.65;10.00;;;9.70;99.90;;;;;;5072942;28;20108;-63
2024/01/29 12:41:07;;;;;;;15.10;10.35;;;9.60;99.90;;;;;;5057055;28;20049;-63
2024/01/29 12:43:33;;;;;;;12.95;9.77;;;9.70;99.90;;;;;;5052652;28;20492;-63
2024/01/29 12:46:03;;;;;;;13.07;10.07;;;9.60;99.90;;;;;;5052847;28;20053;-63
2024/01/29 12:48:30;;;;;;;14.00;9.43;;;9.80;99.90;;;;;;5051925;28;20053;-63
2024/01/29 12:50:57;;;;;;;11.88;10.25;;;9.80;99.90;;;;;;5065716;28;20052;-64
2024/01/29 12:53:25;;;;;;;12.77;9.48;;;9.80;99.90;;;;;;5072065;28;20044;-64